Time;durP1;ratioP1;P1;durP2;ratioP2;P2;SDS_P1;SDS_P2;PMS_P1;PMS_P2;Temp;Humidity;BMP_temperature;BMP_pressure;BME280_temperature;BME280_humidity;BME280_pressure;Samples;Min_cycle;Max_cycle;Signal;HPM_P1;HPM_P2
2023/06/15 00:01:34;;;;;;;4.83;3.93;;;18.60;93.90;;;18.34;45.54;101272.88;5052728;28;20230;-73
2023/06/15 00:04:06;;;;;;;4.87;4.37;;;18.50;94.40;;;18.24;45.95;101269.66;5053750;28;20200;-73
2023/06/15 00:06:38;;;;;;;8.17;4.30;;;18.40;94.50;;;18.21;45.07;101275.50;5056661;28;20190;-73
2023/06/15 00:09:10;;;;;;;8.57;4.40;;;18.40;94.90;;;18.18;45.33;101275.88;5056908;28;20194;-73
2023/06/15 00:11:43;;;;;;;6.50;4.50;;;18.30;94.70;;;18.04;45.88;101271.38;5056667;28;20226;-73
2023/06/15 00:14:13;;;;;;;9.20;4.23;;;;;;;18.11;45.46;101283.97;5056816;28;20190;-73
2023/06/15 00:16:45;;;;;;;5.97;4.13;;;18.20;94.30;;;18.10;45.56;101278.72;5056772;28;20195;-73
2023/06/15 00:19:17;;;;;;;7.50;4.57;;;18.30;94.80;;;17.97;45.48;101286.75;5056689;28;20197;-73
2023/06/15 00:21:53;;;;;;;5.60;4.03;;;18.20;95.10;;;18.02;46.44;101285.13;5056267;28;20218;-73
2023/06/15 00:24:25;;;;;;;4.90;4.23;;;18.10;95.10;;;18.01;46.25;101277.22;5056299;28;20186;-73
2023/06/15 00:26:58;;;;;;;6.90;4.30;;;18.20;95.20;;;17.99;45.84;101290.09;5056562;28;20228;-73
2023/06/15 00:29:30;;;;;;;4.63;4.10;;;18.10;95.00;;;17.91;46.65;101282.13;5056545;28;20190;-73
2023/06/15 00:32:02;;;;;;;7.83;5.17;;;18.10;95.30;;;17.92;46.23;101278.34;5056007;28;20268;-73
2023/06/15 00:34:34;;;;;;;5.97;4.27;;;18.20;95.50;;;17.94;46.38;101281.72;5056134;28;20649;-73
2023/06/15 00:37:05;;;;;;;6.33;4.30;;;18.10;95.60;;;18.01;47.01;101278.03;5056379;28;20225;-73
2023/06/15 00:39:37;;;;;;;10.47;4.50;;;18.20;95.60;;;17.97;46.19;101279.47;5056018;28;20284;-73
2023/06/15 00:42:12;;;;;;;9.10;4.27;;;18.10;95.60;;;17.95;46.21;101288.81;5055839;28;20257;-73
2023/06/15 00:44:44;;;;;;;8.33;5.00;;;18.10;95.60;;;17.91;46.36;101282.13;5056275;28;20285;-73
2023/06/15 00:47:18;;;;;;;6.47;3.93;;;18.20;95.50;;;17.96;46.15;101276.94;5056203;28;20294;-73
2023/06/15 00:49:50;;;;;;;6.77;4.60;;;18.20;95.50;;;17.72;46.70;101273.59;5056163;28;20288;-73
2023/06/15 00:52:22;;;;;;;6.73;4.67;;;18.00;95.70;;;17.56;46.50;101271.16;5055632;28;20637;-73
2023/06/15 00:54:55;;;;;;;6.40;4.83;;;17.80;95.90;;;17.50;47.83;101276.47;5056071;28;20285;-73
2023/06/15 00:57:29;;;;;;;5.20;4.50;;;17.70;96.50;;;17.59;47.10;101278.91;5056040;28;20277;-73
2023/06/15 01:00:01;;;;;;;8.90;5.10;;;17.80;96.40;;;17.60;48.40;101277.84;5055660;28;20222;-73
2023/06/15 01:02:38;;;;;;;5.23;3.83;;;17.80;96.70;;;17.51;48.23;101280.84;5055878;28;20245;-73
2023/06/15 01:05:12;;;;;;;7.83;4.47;;;17.70;96.60;;;17.51;48.94;101280.84;5055533;28;20601;-73
2023/06/15 01:07:48;;;;;;;5.93;4.30;;;17.70;97.20;;;17.46;47.90;101273.31;5055837;28;20186;-73
2023/06/15 01:10:23;;;;;;;5.27;4.50;;;17.80;96.80;;;17.27;48.69;101273.91;5055466;28;20662;-73
2023/06/15 01:12:59;;;;;;;7.60;4.10;;;17.50;97.20;;;17.24;48.78;101275.16;5055520;28;20233;-73
2023/06/15 01:15:31;;;;;;;5.17;4.33;;;17.40;97.80;;;17.04;49.13;101278.66;5054566;28;20221;-73
2023/06/15 01:18:05;;;;;;;6.07;4.77;;;17.30;97.90;;;16.93;49.14;101276.41;5055630;28;20190;-73
2023/06/15 01:20:42;;;;;;;6.10;4.47;;;17.10;98.20;;;16.88;48.94;101279.72;5055561;28;20267;-73
2023/06/15 01:23:31;;;;;;;6.97;4.87;;;17.10;98.50;;;16.87;50.25;101271.78;5055101;28;20772;-73
2023/06/15 01:26:16;;;;;;;9.00;4.27;;;17.00;99.00;;;16.79;50.05;101274.56;5055430;28;20273;-73
2023/06/15 01:28:52;;;;;;;6.07;4.57;;;17.00;99.00;;;16.71;50.37;101276.34;5055445;28;20248;-73
2023/06/15 01:31:25;;;;;;;5.60;4.37;;;17.00;99.40;;;16.88;50.05;101265.34;5055237;28;20296;-73
2023/06/15 01:33:57;;;;;;;8.30;4.70;;;17.10;99.20;;;16.65;51.15;101274.38;5055227;28;20241;-73
2023/06/15 01:36:29;;;;;;;5.93;5.00;;;17.00;99.80;;;16.53;51.66;101270.47;5055030;28;20616;-73
2023/06/15 01:39:02;;;;;;;6.13;4.77;;;16.80;99.80;;;16.65;50.59;101274.38;5055279;28;20485;-73
2023/06/15 01:41:37;;;;;;;6.20;4.30;;;17.00;99.90;;;16.56;51.24;101267.41;5054822;28;20214;-73
2023/06/15 01:44:09;;;;;;;6.30;4.50;;;16.70;99.90;;;16.47;50.78;101273.88;5055108;28;20200;-73
2023/06/15 01:46:43;;;;;;;6.50;4.27;;;16.70;99.90;;;16.51;50.85;101272.50;5054717;28;20736;-73
2023/06/15 01:49:11;;;;;;;6.07;4.63;;;;;;;16.39;51.46;101271.28;5054719;28;20317;-73
2023/06/15 01:51:42;;;;;;;5.27;4.60;;;;;;;16.42;51.19;101267.38;5054818;28;20237;-73
2023/06/15 01:54:10;;;;;;;6.60;4.37;;;;;;;16.37;51.83;101275.19;5054649;28;20190;-73
2023/06/15 01:56:44;;;;;;;6.43;4.93;;;16.60;99.90;;;16.37;51.03;101281.41;5054477;28;20588;-73
2023/06/15 01:59:16;;;;;;;5.90;4.70;;;16.60;99.90;;;16.34;51.72;101275.53;5054861;28;20194;-72
2023/06/15 02:01:48;;;;;;;7.63;4.57;;;16.70;99.80;;;16.24;52.04;101276.66;5054694;28;20192;-73
2023/06/15 02:04:20;;;;;;;10.43;4.93;;;16.40;99.60;;;16.23;51.91;101274.16;5054737;28;20190;-73
2023/06/15 02:06:52;;;;;;;7.73;4.90;;;16.40;99.30;;;16.18;52.24;101273.84;5054385;28;20644;-73
2023/06/15 02:09:24;;;;;;;7.57;5.00;;;16.40;99.60;;;16.11;51.95;101271.06;5054605;28;20209;-73
2023/06/15 02:11:57;;;;;;;8.17;4.97;;;16.40;99.30;;;16.01;53.04;101269.63;5054406;28;20234;-73
2023/06/15 02:14:31;;;;;;;6.03;4.80;;;16.30;99.70;;;16.14;52.92;101275.25;5054551;28;20190;-73
2023/06/15 02:17:03;;;;;;;7.13;5.23;;;16.40;99.90;;;16.09;53.49;101270.41;5054511;28;20311;-73
2023/06/15 02:19:35;;;;;;;7.03;4.93;;;16.30;99.70;;;16.07;53.23;101274.28;5054430;28;20190;-73
2023/06/15 02:22:08;;;;;;;6.13;5.23;;;16.40;99.90;;;16.06;52.83;101278.03;5054301;28;20309;-73
2023/06/15 02:24:39;;;;;;;8.43;5.37;;;16.30;99.90;;;15.89;54.07;101271.09;5054038;28;20718;-73
2023/06/15 02:27:13;;;;;;;9.23;5.20;;;16.20;99.90;;;15.87;53.58;101279.38;5054330;28;20277;-73
2023/06/15 02:29:47;;;;;;;6.77;4.47;;;16.10;99.90;;;15.91;54.12;101277.16;5053817;28;20562;-73
2023/06/15 02:32:34;;;;;;;6.97;4.70;;;16.20;99.90;;;15.88;53.81;101275.66;5054023;28;20611;-73
2023/06/15 02:35:07;;;;;;;6.60;5.27;;;16.20;99.90;;;15.88;54.44;101270.25;5054185;28;20547;-73
2023/06/15 02:37:41;;;;;;;5.77;5.17;;;16.20;99.90;;;15.81;53.79;101269.31;5053790;28;20715;-73
2023/06/15 02:40:14;;;;;;;11.97;5.10;;;;;;;15.72;54.13;101265.81;5053641;28;20281;-73
2023/06/15 02:42:47;;;;;;;8.17;5.60;;;15.90;99.90;;;15.67;54.10;101273.63;5053855;28;20229;-73
2023/06/15 02:45:19;;;;;;;8.67;5.20;;;;;;;15.67;54.08;101276.34;5054499;28;20316;-73
2023/06/15 02:47:50;;;;;;;8.50;5.17;;;;;;;15.62;53.87;101273.31;5053792;28;20197;-75
2023/06/15 02:50:20;;;;;;;8.77;5.50;;;;;;;15.61;54.45;101281.63;5053509;28;20194;-75
2023/06/15 02:52:53;;;;;;;9.30;5.57;;;;;;;15.58;54.27;101279.28;5053281;28;20622;-75
2023/06/15 02:55:23;;;;;;;7.23;5.47;;;;;;;15.60;54.55;101278.06;5053435;28;20293;-75
2023/06/15 02:57:53;;;;;;;6.17;5.40;;;;;;;15.67;54.47;101278.19;5053681;28;20191;-75
2023/06/15 03:00:23;;;;;;;7.33;5.60;;;;;;;15.50;54.97;101280.16;5053589;28;20206;-75
2023/06/15 03:02:54;;;;;;;10.40;6.00;;;;;;;15.54;54.52;101281.50;5053763;28;20257;-75
2023/06/15 03:05:22;;;;;;;7.70;5.47;;;;;;;15.50;54.96;101279.31;5053199;28;20670;-75
2023/06/15 03:07:52;;;;;;;6.43;5.40;;;;;;;15.50;55.36;101282.88;5053479;28;20221;-75
2023/06/15 03:10:21;;;;;;;6.60;5.53;;;;;;;15.42;54.95;101280.19;5053097;28;20253;-75
2023/06/15 03:12:50;;;;;;;8.30;5.70;;;;;;;15.51;54.67;101276.47;5052912;28;20279;-75
2023/06/15 03:15:20;;;;;;;8.57;5.40;;;;;;;15.46;55.14;101284.19;5052996;28;20679;-75
2023/06/15 03:17:48;;;;;;;5.73;5.20;;;;;;;15.51;55.18;101281.84;5053233;28;20206;-75
2023/06/15 03:20:18;;;;;;;12.23;5.47;;;;;;;15.50;54.99;101293.66;5053250;28;20305;-75
2023/06/15 03:22:48;;;;;;;8.80;5.30;;;;;;;15.43;55.54;101287.25;5053183;28;20229;-75
2023/06/15 03:25:16;;;;;;;6.20;5.57;;;;;;;15.38;55.35;101288.78;5052868;28;20206;-75
2023/06/15 03:27:48;;;;;;;6.93;4.93;;;;;;;15.35;54.99;101295.41;5052745;28;20714;-75
2023/06/15 03:30:20;;;;;;;10.33;5.50;;;;;;;15.41;55.24;101297.38;5053017;28;20191;-75
2023/06/15 03:32:49;;;;;;;6.33;5.53;;;;;;;15.35;55.41;101297.25;5052618;28;20237;-75
2023/06/15 03:35:18;;;;;;;8.27;5.73;;;;;;;15.38;55.56;101300.44;5053023;28;20232;-75
2023/06/15 03:37:48;;;;;;;6.40;5.33;;;;;;;15.37;55.52;101314.13;5052655;28;20210;-75
2023/06/15 03:40:17;;;;;;;11.23;5.50;;;;;;;15.33;55.70;101313.63;5052491;28;20241;-75
2023/06/15 03:42:47;;;;;;;9.53;6.23;;;;;;;15.41;55.79;101305.47;5053442;28;20277;-75
2023/06/15 03:45:17;;;;;;;6.63;5.63;;;;;;;15.35;56.51;101316.97;5052767;28;20202;-75
2023/06/15 03:47:48;;;;;;;6.63;5.27;;;;;;;15.31;56.63;101310.25;5053131;28;20240;-75
2023/06/15 03:50:17;;;;;;;9.23;5.73;;;;;;;15.33;56.70;101319.03;5052813;28;20640;-75
2023/06/15 03:52:45;;;;;;;10.30;5.57;;;;;;;15.21;57.15;101315.88;5052452;28;20745;-75
2023/06/15 03:55:15;;;;;;;11.70;5.80;;;;;;;15.20;57.32;101313.38;5052755;28;20680;-75
2023/06/15 03:57:44;;;;;;;9.97;6.07;;;;;;;15.11;56.84;101322.50;5052756;28;20718;-75
2023/06/15 04:00:13;;;;;;;8.40;5.87;;;;;;;15.20;56.91;101319.59;5052924;28;20210;-75
2023/06/15 04:02:44;;;;;;;9.20;5.63;;;;;;;15.20;56.51;101318.75;5052573;28;20672;-75
2023/06/15 04:05:15;;;;;;;8.93;5.60;;;;;;;15.18;56.39;101315.38;5053026;28;20244;-75
2023/06/15 04:07:44;;;;;;;6.40;5.80;;;;;;;15.21;56.74;101317.72;5052933;28;20199;-75
2023/06/15 04:10:15;;;;;;;7.27;5.50;;;;;;;15.24;55.86;101317.38;5052892;28;20228;-75
2023/06/15 04:12:43;;;;;;;5.90;5.03;;;;;;;15.31;55.91;101321.03;5052451;28;20222;-75
2023/06/15 04:15:12;;;;;;;6.93;5.10;;;;;;;15.34;56.41;101320.72;5052839;28;20281;-75
2023/06/15 04:17:42;;;;;;;7.37;5.17;;;;;;;15.23;57.24;101319.25;5052813;28;20206;-75
2023/06/15 04:20:14;;;;;;;7.87;5.70;;;;;;;15.24;56.79;101330.84;5052846;28;20244;-76
2023/06/15 04:22:48;;;;;;;9.07;5.87;;;;;;;15.18;56.86;101331.56;5052748;28;20312;-75
2023/06/15 04:25:17;;;;;;;9.33;5.90;;;;;;;15.17;57.61;101329.91;5052433;28;20210;-75
2023/06/15 04:27:46;;;;;;;7.00;5.10;;;;;;;15.16;56.94;101333.63;5052693;28;20212;-75
2023/06/15 04:30:16;;;;;;;5.90;5.33;;;;;;;15.10;55.21;101328.94;5052723;28;20332;-75
2023/06/15 04:32:46;;;;;;;8.40;5.63;;;;;;;15.16;57.24;101334.47;5052216;28;20576;-75
2023/06/15 04:35:17;;;;;;;15.27;6.10;;;;;;;15.19;57.36;101339.50;5052679;28;20260;-75
2023/06/15 04:37:46;;;;;;;7.17;5.73;;;;;;;15.19;57.05;101342.19;5052375;28;20648;-75
2023/06/15 04:40:15;;;;;;;7.90;5.23;;;;;;;15.21;57.29;101339.31;5052422;28;20248;-75
2023/06/15 04:42:44;;;;;;;7.77;5.87;;;;;;;15.23;57.56;101337.28;5053004;28;20308;-75
2023/06/15 04:45:13;;;;;;;8.60;5.13;;;;;;;15.21;56.79;101334.75;5052565;28;20237;-75
2023/06/15 04:47:42;;;;;;;8.17;5.60;;;;;;;15.23;57.08;101338.13;5052527;28;20206;-75
2023/06/15 04:50:13;;;;;;;7.97;5.63;;;;;;;15.19;57.02;101339.50;5052204;28;20574;-75
2023/06/15 04:52:43;;;;;;;8.50;5.90;;;;;;;15.23;57.75;101340.00;5055771;28;20284;-75
2023/06/15 04:55:12;;;;;;;7.57;5.60;;;;;;;15.24;58.53;101349.75;5055805;28;20679;-75
2023/06/15 04:57:40;;;;;;;9.47;6.00;;;;;;;15.22;57.88;101339.16;5056100;28;20202;-75
2023/06/15 05:00:11;;;;;;;9.13;5.97;;;;;;;15.27;57.40;101344.03;5055990;28;20252;-75
2023/06/15 05:02:39;;;;;;;9.77;5.47;;;;;;;15.20;57.74;101343.03;5055890;28;20344;-75
2023/06/15 05:05:08;;;;;;;7.30;5.43;;;;;;;15.23;57.73;101345.38;5055950;28;20233;-75
2023/06/15 05:07:37;;;;;;;12.70;5.50;;;;;;;15.24;56.70;101347.88;5055872;28;20228;-75
2023/06/15 05:10:08;;;;;;;7.67;5.50;;;;;;;15.26;56.41;101345.03;5055496;28;20672;-75
2023/06/15 05:12:36;;;;;;;7.77;5.83;;;;;;;15.28;56.37;101345.69;5055687;28;20226;-75
2023/06/15 05:15:06;;;;;;;6.37;5.60;;;;;;;15.25;56.39;101343.34;5055650;28;20308;-75
2023/06/15 05:17:35;;;;;;;8.83;5.40;;;;;;;15.27;57.56;101345.88;5055339;28;20689;-75
2023/06/15 05:20:05;;;;;;;7.13;5.67;;;;;;;15.30;56.71;101338.28;5055642;28;20259;-75
2023/06/15 05:22:34;;;;;;;9.27;5.50;;;;;;;15.33;56.67;101348.69;5056298;28;20326;-75
2023/06/15 05:25:03;;;;;;;7.43;5.63;;;;;;;15.37;57.52;101338.41;5055271;28;20705;-75
2023/06/15 05:27:35;;;;;;;9.77;5.67;;;;;;;15.38;57.07;101343.59;5055486;28;20297;-75
2023/06/15 05:30:07;;;;;;;10.63;5.60;;;;;;;15.39;56.89;101344.44;5055503;28;20252;-75
2023/06/15 05:32:37;;;;;;;8.23;5.97;;;;;;;15.43;58.27;101349.31;5055356;28;20268;-75
2023/06/15 05:35:07;;;;;;;10.97;5.83;;;;;;;15.40;57.80;101346.13;5055292;28;20210;-75
2023/06/15 05:37:36;;;;;;;9.73;6.07;;;;;;;15.43;57.60;101349.31;5055249;28;20206;-75
2023/06/15 05:40:10;;;;;;;8.37;5.80;;;;;;;15.45;56.69;101346.44;5054791;28;20746;-76
2023/06/15 05:42:40;;;;;;;6.13;5.53;;;;;;;15.40;56.36;101346.13;5055190;28;20313;-76
2023/06/15 05:45:09;;;;;;;10.07;5.43;;;;;;;15.44;56.78;101347.47;5054876;28;20575;-77
2023/06/15 05:47:37;;;;;;;8.37;6.00;;;;;;;15.49;57.02;101347.78;5055119;28;20298;-76
2023/06/15 05:50:07;;;;;;;9.23;5.03;;;;;;;15.55;56.50;101349.78;5054843;28;20767;-76
2023/06/15 05:52:35;;;;;;;6.97;5.70;;;;;;;15.56;56.14;101346.91;5055175;28;20260;-75
2023/06/15 05:55:05;;;;;;;7.53;5.80;;;;;;;15.64;56.75;101349.56;5055021;28;20316;-77
2023/06/15 05:57:34;;;;;;;7.53;5.50;;;;;;;15.69;56.40;101352.56;5054582;28;20664;-76
2023/06/15 06:00:05;;;;;;;8.27;5.57;;;;;;;15.71;55.77;101347.84;5054902;28;20296;-77
2023/06/15 06:02:33;;;;;;;9.27;5.77;;;;;;;15.77;56.55;101342.72;5054172;28;20650;-76
2023/06/15 06:05:02;;;;;;;8.33;5.40;;;;;;;15.81;56.01;101344.06;5054856;28;20209;-76
2023/06/15 06:07:32;;;;;;;7.83;5.47;;;;;;;15.85;55.58;101345.38;5054860;28;20202;-77
2023/06/15 06:10:03;;;;;;;7.83;5.00;;;;;;;15.90;56.84;101343.81;5054488;28;20705;-76
2023/06/15 06:12:31;;;;;;;7.70;5.10;;;;;;;15.97;56.12;101350.19;5054648;28;20257;-75
2023/06/15 06:15:00;;;;;;;6.73;4.63;;;;;;;16.02;54.45;101349.66;5054564;28;20230;-76
2023/06/15 06:17:31;;;;;;;7.27;4.70;;;;;;;16.07;53.39;101355.31;5054692;28;20202;-77
2023/06/15 06:20:22;;;;;;;7.47;5.20;;;;;;;16.14;53.65;101350.88;5054512;28;20206;-76
2023/06/15 06:22:50;;;;;;;5.13;4.43;;;;;;;16.23;53.20;101350.63;5054228;28;20723;-76
2023/06/15 06:25:19;;;;;;;5.57;4.70;;;;;;;16.27;54.43;101344.88;5054653;28;20281;-76
2023/06/15 06:27:49;;;;;;;8.63;4.57;;;;;;;16.34;53.74;101345.81;5054620;28;20210;-76
2023/06/15 06:30:18;;;;;;;7.93;4.80;;;;;;;16.38;54.65;101345.25;5054454;28;20190;-77
2023/06/15 06:32:47;;;;;;;6.83;4.93;;;;;;;16.45;54.70;101346.22;5054277;28;20773;-76
2023/06/15 06:35:16;;;;;;;6.27;4.60;;;;;;;16.52;51.95;101349.84;5054336;28;20586;-76
2023/06/15 06:37:47;;;;;;;6.53;4.57;;;;;;;16.56;52.33;101350.38;5054352;28;20206;-77
2023/06/15 06:40:17;;;;;;;11.57;5.50;;;;;;;16.64;52.18;101342.19;5054109;28;20240;-76
2023/06/15 06:42:48;;;;;;;9.07;5.23;;;;;;;16.70;53.34;101353.09;5054504;28;20257;-76
2023/06/15 06:45:20;;;;;;;10.93;5.07;;;17.20;99.90;;;16.88;52.31;101346.47;5054209;28;20274;-77
2023/06/15 06:47:53;;;;;;;5.93;4.43;;;17.50;99.90;;;16.89;54.28;101345.44;5054441;28;20206;-77
2023/06/15 06:50:25;;;;;;;8.80;5.30;;;17.50;99.90;;;16.93;53.61;101336.75;5054083;28;20201;-77
2023/06/15 06:52:57;;;;;;;13.73;5.07;;;17.50;99.90;;;16.99;54.08;101340.56;5054020;28;20312;-76
2023/06/15 06:55:28;;;;;;;9.10;4.93;;;17.60;99.90;;;17.04;53.35;101339.00;5054058;28;20295;-77
2023/06/15 06:58:01;;;;;;;6.17;3.90;;;17.70;99.90;;;17.14;52.56;101352.25;5054090;28;20187;-77
2023/06/15 07:00:33;;;;;;;8.80;4.47;;;17.70;99.90;;;17.20;52.07;101337.94;5053941;28;20663;-77
2023/06/15 07:03:06;;;;;;;10.37;4.90;;;17.80;99.90;;;17.28;52.47;101340.56;5053544;28;20595;-77
2023/06/15 07:05:40;;;;;;;15.00;4.50;;;17.90;99.80;;;17.33;54.71;101338.09;5053533;28;20189;-76
2023/06/15 07:08:12;;;;;;;4.43;4.03;;;17.90;99.90;;;17.41;52.49;101337.16;5053513;28;20531;-76
2023/06/15 07:10:44;;;;;;;5.63;4.10;;;18.10;99.90;;;17.47;52.16;101344.53;5053426;28;20659;-77
2023/06/15 07:13:16;;;;;;;6.00;4.20;;;18.10;99.80;;;17.54;51.50;101340.88;5053130;28;20783;-76
2023/06/15 07:15:46;;;;;;;5.73;3.40;;;18.20;99.00;;;17.64;50.36;101341.41;5053582;28;20591;-77
2023/06/15 07:18:19;;;;;;;6.87;3.87;;;18.30;98.40;;;17.82;48.34;101337.44;5053304;28;20763;-77
2023/06/15 07:20:53;;;;;;;6.43;3.90;;;18.40;97.80;;;17.99;46.55;101338.84;5053487;28;20281;-77
2023/06/15 07:23:26;;;;;;;7.00;4.03;;;18.50;96.70;;;17.99;48.41;101330.72;5053350;28;20233;-76
2023/06/15 07:26:15;;;;;;;8.10;3.93;;;18.60;97.40;;;18.12;46.35;101334.41;5053413;28;20187;-76
2023/06/15 07:28:47;;;;;;;7.47;3.87;;;18.80;96.60;;;18.17;45.99;101331.97;5053035;28;20624;-77
2023/06/15 07:31:19;;;;;;;10.00;4.10;;;18.80;96.20;;;18.25;45.52;101333.69;5053261;28;20234;-78
2023/06/15 07:33:53;;;;;;;10.37;4.33;;;18.90;96.10;;;18.34;45.87;101340.63;5053229;28;20236;-76
2023/06/15 07:36:25;;;;;;;9.53;4.50;;;18.90;96.40;;;18.38;46.92;101343.78;5053244;28;20245;-76
2023/06/15 07:38:57;;;;;;;7.90;4.20;;;19.00;97.20;;;18.58;45.93;101333.97;5053205;28;20310;-76
2023/06/15 07:41:29;;;;;;;10.27;4.40;;;19.20;96.10;;;18.65;45.70;101334.84;5052791;28;20701;-76
2023/06/15 07:44:03;;;;;;;10.47;4.07;;;19.20;96.20;;;18.63;46.73;101335.03;5053216;28;20186;-76
2023/06/15 07:46:37;;;;;;;9.97;4.00;;;19.30;96.40;;;18.89;44.87;101342.53;5052830;28;20538;-76
2023/06/15 07:49:10;;;;;;;11.10;4.03;;;19.50;96.30;;;19.02;44.74;101334.44;5053130;28;20333;-76
2023/06/15 07:51:42;;;;;;;8.00;3.83;;;19.60;95.40;;;19.02;45.20;101339.03;5052720;28;20629;-76
2023/06/15 07:54:30;;;;;;;6.33;3.57;;;19.60;96.40;;;19.09;43.33;101339.91;5053054;28;20193;-76
2023/06/15 07:57:02;;;;;;;7.07;4.07;;;19.80;95.10;;;19.31;42.40;101346.91;5053050;28;20277;-76
2023/06/15 07:59:34;;;;;;;8.80;4.40;;;19.90;94.30;;;19.32;42.96;101351.28;5053053;28;20285;-76
2023/06/15 08:02:06;;;;;;;8.47;3.70;;;19.90;94.20;;;19.43;42.96;101347.19;5052947;28;20233;-76
2023/06/15 08:04:40;;;;;;;7.33;3.90;;;20.00;94.70;;;19.54;41.60;101339.28;5053021;28;20285;-76
2023/06/15 08:07:13;;;;;;;6.60;4.00;;;20.10;93.40;;;19.57;42.15;101341.59;5053001;28;20285;-76
2023/06/15 08:09:44;;;;;;;11.13;4.17;;;20.20;93.70;;;19.65;41.87;101337.88;5052962;28;20197;-76
2023/06/15 08:12:17;;;;;;;8.53;4.23;;;20.20;93.40;;;19.69;42.70;101337.22;5052586;28;20644;-76
2023/06/15 08:14:48;;;;;;;6.40;3.77;;;20.30;93.60;;;19.71;43.12;101334.31;5052834;28;20190;-76
2023/06/15 08:17:20;;;;;;;7.03;4.10;;;20.30;93.90;;;19.71;44.94;101331.59;5052858;28;20226;-76
2023/06/15 08:19:54;;;;;;;6.77;4.00;;;20.30;95.00;;;19.86;42.27;101339.59;5052875;28;20230;-76
2023/06/15 08:22:27;;;;;;;4.47;3.80;;;20.40;94.20;;;19.99;40.89;101328.72;5052869;28;20690;-76
2023/06/15 08:24:59;;;;;;;5.93;3.90;;;20.60;92.60;;;20.00;42.52;101325.78;5053531;28;20248;-76
2023/06/15 08:27:31;;;;;;;8.33;3.77;;;20.60;93.50;;;20.15;44.43;101333.75;5056669;28;20194;-76
2023/06/15 08:30:04;;;;;;;8.40;3.50;;;20.70;94.30;;;20.28;39.24;101333.78;5056705;28;20229;-76
2023/06/15 08:32:35;;;;;;;5.67;3.50;;;20.80;92.60;;;20.38;39.17;101326.03;5056256;28;20226;-76
2023/06/15 08:35:10;;;;;;;6.33;3.73;;;20.90;92.00;;;20.42;39.67;101334.59;5056557;28;20241;-76
2023/06/15 08:37:42;;;;;;;6.33;3.73;;;21.00;91.80;;;20.43;40.36;101326.25;5056539;28;20296;-76
2023/06/15 08:40:14;;;;;;;8.17;3.73;;;21.00;92.10;;;20.47;42.03;101329.38;5056325;28;20218;-76
2023/06/15 08:42:47;;;;;;;6.10;3.77;;;21.00;92.70;;;20.70;38.68;101333.31;5056700;28;20627;-76
2023/06/15 08:45:21;;;;;;;13.87;4.13;;;21.20;91.60;;;20.81;39.08;101325.56;5056178;28;20620;-76
2023/06/15 08:47:58;;;;;;;4.60;3.60;;;21.40;91.50;;;20.84;41.10;101327.84;5056358;28;20189;-76
2023/06/15 08:50:32;;;;;;;8.07;4.23;;;21.40;92.40;;;20.98;38.35;101318.59;5056375;28;20201;-76
2023/06/15 08:53:05;;;;;;;6.70;3.80;;;21.50;90.70;;;21.04;40.44;101328.63;5056233;28;20230;-76
2023/06/15 08:55:38;;;;;;;6.00;3.57;;;21.60;92.00;;;21.24;36.47;101329.41;5056223;28;20207;-77
2023/06/15 08:58:10;;;;;;;5.77;3.23;;;21.80;90.20;;;21.41;37.57;101324.31;5055881;28;20735;-76
2023/06/15 09:00:42;;;;;;;4.37;3.53;;;22.00;90.10;;;21.59;36.50;101322.56;5056708;28;20281;-76
2023/06/15 09:03:15;;;;;;;6.87;3.50;;;22.10;89.50;;;21.60;36.37;101317.94;5056029;28;20313;-76
2023/06/15 09:05:49;;;;;;;5.10;3.30;;;22.20;89.10;;;21.72;34.82;101317.00;5056075;28;20190;-76
2023/06/15 09:08:21;;;;;;;6.93;3.83;;;22.20;86.50;;;21.88;34.77;101323.84;5056010;28;20272;-77
2023/06/15 09:11:06;;;;;;;4.93;3.57;;;22.40;87.30;;;21.99;34.34;101314.13;5056000;28;20277;-77
2023/06/15 09:13:38;;;;;;;5.83;3.30;;;22.50;86.00;;;22.11;33.67;101315.94;5055791;28;20260;-76
2023/06/15 09:16:12;;;;;;;7.00;3.57;;;22.60;85.10;;;22.29;35.02;101323.34;5055801;28;20322;-76
2023/06/15 09:18:51;;;;;;;6.37;3.30;;;22.80;86.20;;;22.43;33.82;101311.22;5055483;28;20670;-77
2023/06/15 09:21:26;;;;;;;7.43;3.40;;;22.90;85.00;;;22.53;34.54;101324.38;5055773;28;20198;-77
2023/06/15 09:24:08;;;;;;;7.23;3.20;;;23.00;84.40;;;22.44;32.02;101306.63;5055317;28;20572;-77
2023/06/15 09:26:44;;;;;;;4.77;3.47;;;23.00;81.50;;;22.47;34.63;101312.47;5055696;28;20182;-77
2023/06/15 09:29:17;;;;;;;5.00;3.40;;;22.90;85.00;;;22.69;31.40;101312.91;5055265;28;20607;-76
2023/06/15 09:31:48;;;;;;;6.43;3.83;;;23.00;82.70;;;22.79;32.96;101307.75;5055493;28;20198;-76
2023/06/15 09:34:21;;;;;;;5.30;3.70;;;23.20;82.90;;;23.00;31.42;101298.28;5055564;28;20245;-77
2023/06/15 09:36:54;;;;;;;4.77;3.37;;;23.50;81.00;;;23.16;32.16;101303.13;5054445;28;20681;-77
2023/06/15 09:39:27;;;;;;;4.03;3.00;;;23.60;82.70;;;23.25;30.98;101309.97;5055430;28;20197;-76
2023/06/15 09:42:02;;;;;;;4.87;3.70;;;23.70;79.90;;;23.29;30.50;101299.41;5055112;28;20333;-76
2023/06/15 09:44:34;;;;;;;5.50;3.53;;;23.70;80.00;;;23.40;32.07;101295.88;5055341;28;20284;-76
2023/06/15 09:47:17;;;;;;;4.47;3.43;;;23.80;81.40;;;23.56;31.50;101298.81;5054991;28;20631;-77
2023/06/15 09:49:51;;;;;;;5.90;3.50;;;24.00;81.40;;;23.57;31.35;101297.75;5055221;28;20218;-77
2023/06/15 09:52:25;;;;;;;4.07;2.90;;;24.10;80.40;;;23.49;31.90;101294.53;5055162;28;20258;-77
2023/06/15 09:54:57;;;;;;;6.40;3.37;;;23.90;83.20;;;23.36;30.55;101286.47;5054874;28;20640;-77
2023/06/15 09:57:30;;;;;;;6.63;3.57;;;23.80;80.80;;;23.38;31.21;101290.66;5055044;28;20308;-77
2023/06/15 10:00:05;;;;;;;6.47;3.60;;;23.70;80.50;;;23.49;32.52;101291.81;5055055;28;20194;-77
2023/06/15 10:02:39;;;;;;;5.83;3.80;;;23.90;82.10;;;23.61;31.20;101285.31;5054943;28;20225;-77
2023/06/15 10:05:13;;;;;;;8.70;3.63;;;24.10;80.70;;;23.63;31.01;101291.34;5054656;28;20226;-77
2023/06/15 10:07:49;;;;;;;6.83;3.50;;;24.10;80.10;;;23.80;31.16;101293.44;5054895;28;20265;-77
2023/06/15 10:10:24;;;;;;;5.23;3.30;;;24.20;80.40;;;23.95;30.91;101288.34;5054571;28;20186;-77
2023/06/15 10:13:01;;;;;;;6.63;3.37;;;24.30;80.40;;;24.02;29.97;101294.56;5054977;28;20279;-77
2023/06/15 10:15:36;;;;;;;7.30;3.60;;;24.40;79.20;;;24.11;30.32;101291.22;5054462;28;20635;-77
2023/06/15 10:18:13;;;;;;;5.87;3.43;;;24.50;79.90;;;24.17;29.37;101289.50;5055511;28;20190;-77
2023/06/15 10:20:45;;;;;;;4.63;3.27;;;24.50;78.50;;;24.23;29.22;101278.44;5054608;28;20555;-77
2023/06/15 10:23:24;;;;;;;4.40;3.37;;;24.60;77.70;;;24.44;27.76;101278.91;5054517;28;20264;-77
2023/06/15 10:26:13;;;;;;;4.20;3.47;;;24.80;75.70;;;24.46;27.41;101283.06;5054274;28;20553;-77
2023/06/15 10:28:51;;;;;;;6.40;3.90;;;24.90;74.70;;;24.35;27.21;101275.69;5054493;28;20200;-77
2023/06/15 10:31:32;;;;;;;6.40;3.77;;;24.70;74.10;;;24.49;28.15;101279.03;5054433;28;20190;-77
2023/06/15 10:34:12;;;;;;;4.67;3.33;;;24.80;75.60;;;24.71;28.21;101275.44;5054395;28;20186;-77
2023/06/15 10:36:54;;;;;;;4.90;3.53;;;25.10;76.80;;;24.72;30.25;101274.38;5054251;28;20216;-77
2023/06/15 10:39:35;;;;;;;6.63;3.90;;;25.10;78.20;;;24.87;28.36;101273.06;5054315;28;20194;-77
2023/06/15 10:42:15;;;;;;;4.55;3.80;;;25.20;78.50;;;25.00;29.20;101272.81;5053870;28;20234;-77
2023/06/15 10:44:47;;;;;;;6.28;4.20;;;25.40;77.40;;;25.02;30.18;101265.16;5054229;28;20284;-77
2023/06/15 10:47:23;;;;;;;7.50;3.40;;;25.40;76.80;;;25.09;29.36;101265.88;5054128;28;20190;-77
2023/06/15 10:49:56;;;;;;;4.82;3.35;;;25.40;77.30;;;25.23;29.01;101267.25;5053105;28;20200;-77
2023/06/15 10:52:37;;;;;;;6.07;3.60;;;25.50;77.40;;;25.39;30.31;101271.94;5054086;28;20575;-77
2023/06/15 10:55:15;;;;;;;6.85;3.75;;;25.70;77.50;;;25.38;28.28;101264.78;5053947;28;20285;-77
2023/06/15 10:57:46;;;;;;;6.15;3.40;;;25.70;75.90;;;25.47;27.32;101274.31;5053846;28;20237;-77
2023/06/15 11:00:28;;;;;;;6.80;3.77;;;25.80;75.40;;;25.51;27.41;101261.81;5053929;28;20195;-77